sensor_id;sensor_type;location;lat;lon;timestamp;P1;durP1;ratioP1;P2;durP2;ratioP2
53961;SDS011;39868;53.398;6.564;2022-12-07T00:01:32;1.40;;;0.80;;
53961;SDS011;39868;53.398;6.564;2022-12-07T00:04:01;1.33;;;1.03;;
53961;SDS011;39868;53.398;6.564;2022-12-07T00:06:34;2.88;;;1.17;;
53961;SDS011;39868;53.398;6.564;2022-12-07T00:09:03;8.50;;;1.10;;
53961;SDS011;39868;53.398;6.564;2022-12-07T00:11:32;2.00;;;0.80;;
53961;SDS011;39868;53.398;6.564;2022-12-07T00:14:01;2.80;;;0.90;;
53961;SDS011;39868;53.398;6.564;2022-12-07T00:16:32;3.37;;;0.90;;
53961;SDS011;39868;53.398;6.564;2022-12-07T00:19:01;3.33;;;1.10;;
53961;SDS011;39868;53.398;6.564;2022-12-07T00:21:30;2.97;;;0.87;;
53961;SDS011;39868;53.398;6.564;2022-12-07T00:23:59;1.83;;;1.10;;
53961;SDS011;39868;53.398;6.564;2022-12-07T00:26:29;1.83;;;1.10;;
53961;SDS011;39868;53.398;6.564;2022-12-07T00:29:04;3.90;;;1.20;;
53961;SDS011;39868;53.398;6.564;2022-12-07T00:31:34;2.20;;;0.80;;
53961;SDS011;39868;53.398;6.564;2022-12-07T00:34:06;1.70;;;0.73;;
53961;SDS011;39868;53.398;6.564;2022-12-07T00:36:38;8.48;;;1.23;;
53961;SDS011;39868;53.398;6.564;2022-12-07T00:39:05;2.43;;;0.70;;
53961;SDS011;39868;53.398;6.564;2022-12-07T00:41:33;4.33;;;1.10;;
53961;SDS011;39868;53.398;6.564;2022-12-07T00:44:00;3.93;;;1.17;;
53961;SDS011;39868;53.398;6.564;2022-12-07T00:46:28;3.60;;;0.93;;
53961;SDS011;39868;53.398;6.564;2022-12-07T00:48:56;5.83;;;0.80;;
53961;SDS011;39868;53.398;6.564;2022-12-07T00:51:24;3.87;;;0.80;;
53961;SDS011;39868;53.398;6.564;2022-12-07T00:53:52;1.97;;;0.90;;
53961;SDS011;39868;53.398;6.564;2022-12-07T00:58:51;2.27;;;0.50;;
53961;SDS011;39868;53.398;6.564;2022-12-07T01:01:26;2.17;;;0.57;;
53961;SDS011;39868;53.398;6.564;2022-12-07T01:03:56;3.83;;;0.40;;
53961;SDS011;39868;53.398;6.564;2022-12-07T01:06:25;1.17;;;0.70;;
53961;SDS011;39868;53.398;6.564;2022-12-07T01:08:53;3.23;;;0.40;;
53961;SDS011;39868;53.398;6.564;2022-12-07T01:11:22;0.63;;;0.60;;
53961;SDS011;39868;53.398;6.564;2022-12-07T01:13:51;3.50;;;0.60;;
53961;SDS011;39868;53.398;6.564;2022-12-07T01:16:20;4.70;;;0.57;;
53961;SDS011;39868;53.398;6.564;2022-12-07T01:18:51;1.20;;;0.63;;
53961;SDS011;39868;53.398;6.564;2022-12-07T01:21:20;1.23;;;0.50;;
53961;SDS011;39868;53.398;6.564;2022-12-07T01:23:49;2.20;;;1.03;;
53961;SDS011;39868;53.398;6.564;2022-12-07T01:26:18;8.30;;;1.47;;
53961;SDS011;39868;53.398;6.564;2022-12-07T01:28:47;3.93;;;0.93;;
53961;SDS011;39868;53.398;6.564;2022-12-07T01:31:16;2.07;;;0.90;;
53961;SDS011;39868;53.398;6.564;2022-12-07T01:33:50;1.27;;;0.67;;
53961;SDS011;39868;53.398;6.564;2022-12-07T01:36:29;0.67;;;0.50;;
53961;SDS011;39868;53.398;6.564;2022-12-07T01:39:05;1.33;;;0.63;;
53961;SDS011;39868;53.398;6.564;2022-12-07T01:41:35;1.00;;;0.60;;
53961;SDS011;39868;53.398;6.564;2022-12-07T01:46:51;1.73;;;0.67;;
53961;SDS011;39868;53.398;6.564;2022-12-07T01:49:28;1.83;;;1.10;;
53961;SDS011;39868;53.398;6.564;2022-12-07T01:52:21;3.73;;;0.90;;
53961;SDS011;39868;53.398;6.564;2022-12-07T01:54:57;1.90;;;0.50;;
53961;SDS011;39868;53.398;6.564;2022-12-07T01:57:30;8.07;;;0.87;;
53961;SDS011;39868;53.398;6.564;2022-12-07T02:00:01;7.03;;;0.97;;
53961;SDS011;39868;53.398;6.564;2022-12-07T02:05:35;2.53;;;0.60;;
53961;SDS011;39868;53.398;6.564;2022-12-07T02:08:05;2.70;;;0.90;;
53961;SDS011;39868;53.398;6.564;2022-12-07T02:10:33;4.27;;;0.83;;
53961;SDS011;39868;53.398;6.564;2022-12-07T02:15:30;2.57;;;0.90;;
53961;SDS011;39868;53.398;6.564;2022-12-07T02:18:22;6.43;;;0.95;;
53961;SDS011;39868;53.398;6.564;2022-12-07T02:21:13;0.63;;;0.60;;
53961;SDS011;39868;53.398;6.564;2022-12-07T02:26:55;1.97;;;0.60;;
53961;SDS011;39868;53.398;6.564;2022-12-07T02:33:13;2.17;;;1.40;;
53961;SDS011;39868;53.398;6.564;2022-12-07T02:37:59;3.87;;;0.83;;
53961;SDS011;39868;53.398;6.564;2022-12-07T02:43:11;2.53;;;0.53;;
53961;SDS011;39868;53.398;6.564;2022-12-07T02:46:03;0.53;;;0.50;;
53961;SDS011;39868;53.398;6.564;2022-12-07T02:48:40;1.30;;;0.40;;
53961;SDS011;39868;53.398;6.564;2022-12-07T02:51:46;2.57;;;0.90;;
53961;SDS011;39868;53.398;6.564;2022-12-07T02:54:15;2.97;;;0.80;;
53961;SDS011;39868;53.398;6.564;2022-12-07T02:56:52;1.00;;;0.50;;
53961;SDS011;39868;53.398;6.564;2022-12-07T03:10:16;0.83;;;0.70;;
53961;SDS011;39868;53.398;6.564;2022-12-07T03:15:27;2.50;;;0.60;;
53961;SDS011;39868;53.398;6.564;2022-12-07T03:18:09;0.70;;;0.70;;
53961;SDS011;39868;53.398;6.564;2022-12-07T03:20:39;6.90;;;2.20;;
53961;SDS011;39868;53.398;6.564;2022-12-07T03:23:11;4.77;;;3.20;;
53961;SDS011;39868;53.398;6.564;2022-12-07T03:25:42;4.20;;;3.80;;
53961;SDS011;39868;53.398;6.564;2022-12-07T03:28:14;3.72;;;3.40;;
53961;SDS011;39868;53.398;6.564;2022-12-07T03:30:46;3.00;;;2.90;;
53961;SDS011;39868;53.398;6.564;2022-12-07T03:33:29;2.95;;;2.65;;
53961;SDS011;39868;53.398;6.564;2022-12-07T03:36:15;3.73;;;3.10;;
53961;SDS011;39868;53.398;6.564;2022-12-07T03:41:43;0.30;;;0.30;;
53961;SDS011;39868;53.398;6.564;2022-12-07T03:44:11;3.30;;;0.63;;
53961;SDS011;39868;53.398;6.564;2022-12-07T03:49:33;4.23;;;0.70;;
53961;SDS011;39868;53.398;6.564;2022-12-07T03:52:27;1.00;;;0.50;;
53961;SDS011;39868;53.398;6.564;2022-12-07T03:57:49;5.07;;;1.03;;
53961;SDS011;39868;53.398;6.564;2022-12-07T04:00:19;2.77;;;0.67;;
53961;SDS011;39868;53.398;6.564;2022-12-07T04:02:48;2.00;;;0.80;;
53961;SDS011;39868;53.398;6.564;2022-12-07T04:05:19;1.13;;;0.70;;
53961;SDS011;39868;53.398;6.564;2022-12-07T04:07:46;3.40;;;0.97;;
53961;SDS011;39868;53.398;6.564;2022-12-07T04:10:14;3.93;;;1.30;;
53961;SDS011;39868;53.398;6.564;2022-12-07T04:12:42;2.10;;;1.20;;
53961;SDS011;39868;53.398;6.564;2022-12-07T04:15:09;3.73;;;1.93;;
53961;SDS011;39868;53.398;6.564;2022-12-07T04:17:37;3.97;;;1.47;;
53961;SDS011;39868;53.398;6.564;2022-12-07T04:20:05;6.87;;;1.40;;
53961;SDS011;39868;53.398;6.564;2022-12-07T04:22:33;8.30;;;1.10;;
53961;SDS011;39868;53.398;6.564;2022-12-07T04:25:00;3.93;;;0.80;;
53961;SDS011;39868;53.398;6.564;2022-12-07T04:27:28;4.07;;;1.00;;
53961;SDS011;39868;53.398;6.564;2022-12-07T04:29:55;3.20;;;1.00;;
53961;SDS011;39868;53.398;6.564;2022-12-07T04:32:23;2.80;;;0.83;;
53961;SDS011;39868;53.398;6.564;2022-12-07T04:34:50;1.90;;;0.83;;
53961;SDS011;39868;53.398;6.564;2022-12-07T04:37:21;1.10;;;1.00;;
53961;SDS011;39868;53.398;6.564;2022-12-07T04:39:49;5.20;;;1.27;;
53961;SDS011;39868;53.398;6.564;2022-12-07T04:42:17;1.00;;;0.90;;
53961;SDS011;39868;53.398;6.564;2022-12-07T04:44:44;3.83;;;0.80;;
53961;SDS011;39868;53.398;6.564;2022-12-07T04:47:12;1.27;;;1.03;;
53961;SDS011;39868;53.398;6.564;2022-12-07T04:49:39;2.63;;;0.90;;
53961;SDS011;39868;53.398;6.564;2022-12-07T04:52:07;0.87;;;0.87;;
53961;SDS011;39868;53.398;6.564;2022-12-07T04:54:34;3.57;;;1.20;;
53961;SDS011;39868;53.398;6.564;2022-12-07T04:57:01;0.90;;;0.90;;
53961;SDS011;39868;53.398;6.564;2022-12-07T04:59:29;4.07;;;0.97;;
53961;SDS011;39868;53.398;6.564;2022-12-07T05:01:56;3.20;;;1.23;;
53961;SDS011;39868;53.398;6.564;2022-12-07T05:04:24;1.47;;;0.90;;
53961;SDS011;39868;53.398;6.564;2022-12-07T05:06:51;3.17;;;1.20;;
53961;SDS011;39868;53.398;6.564;2022-12-07T05:09:19;4.73;;;1.40;;
53961;SDS011;39868;53.398;6.564;2022-12-07T05:11:46;3.80;;;1.30;;
53961;SDS011;39868;53.398;6.564;2022-12-07T05:14:15;2.30;;;1.43;;
53961;SDS011;39868;53.398;6.564;2022-12-07T05:16:45;5.27;;;1.30;;
53961;SDS011;39868;53.398;6.564;2022-12-07T05:19:15;4.40;;;1.27;;
53961;SDS011;39868;53.398;6.564;2022-12-07T05:21:43;2.93;;;1.60;;
53961;SDS011;39868;53.398;6.564;2022-12-07T05:24:17;5.93;;;2.23;;
53961;SDS011;39868;53.398;6.564;2022-12-07T05:26:44;6.93;;;2.23;;
53961;SDS011;39868;53.398;6.564;2022-12-07T05:29:13;5.37;;;1.97;;
53961;SDS011;39868;53.398;6.564;2022-12-07T05:31:42;6.70;;;2.47;;
53961;SDS011;39868;53.398;6.564;2022-12-07T05:34:10;1.70;;;1.60;;
53961;SDS011;39868;53.398;6.564;2022-12-07T05:36:37;1.80;;;1.70;;
53961;SDS011;39868;53.398;6.564;2022-12-07T05:39:05;7.47;;;2.00;;
53961;SDS011;39868;53.398;6.564;2022-12-07T05:41:33;6.80;;;1.63;;
53961;SDS011;39868;53.398;6.564;2022-12-07T05:44:19;2.90;;;2.00;;
53961;SDS011;39868;53.398;6.564;2022-12-07T05:46:47;2.53;;;2.33;;
53961;SDS011;39868;53.398;6.564;2022-12-07T05:49:14;3.50;;;2.00;;
53961;SDS011;39868;53.398;6.564;2022-12-07T05:51:42;2.27;;;2.07;;
53961;SDS011;39868;53.398;6.564;2022-12-07T05:54:09;4.70;;;2.37;;
53961;SDS011;39868;53.398;6.564;2022-12-07T05:56:37;5.07;;;2.43;;
53961;SDS011;39868;53.398;6.564;2022-12-07T05:59:04;9.97;;;2.80;;
53961;SDS011;39868;53.398;6.564;2022-12-07T06:02:00;5.67;;;2.63;;
53961;SDS011;39868;53.398;6.564;2022-12-07T06:04:33;6.00;;;2.33;;
53961;SDS011;39868;53.398;6.564;2022-12-07T06:07:03;2.30;;;2.20;;
53961;SDS011;39868;53.398;6.564;2022-12-07T06:09:31;4.20;;;2.80;;
53961;SDS011;39868;53.398;6.564;2022-12-07T06:12:00;5.70;;;2.50;;
53961;SDS011;39868;53.398;6.564;2022-12-07T06:14:46;2.80;;;2.60;;
53961;SDS011;39868;53.398;6.564;2022-12-07T06:17:13;3.57;;;2.20;;
53961;SDS011;39868;53.398;6.564;2022-12-07T06:19:41;2.37;;;2.23;;
53961;SDS011;39868;53.398;6.564;2022-12-07T06:22:09;2.50;;;2.30;;
53961;SDS011;39868;53.398;6.564;2022-12-07T06:24:38;4.30;;;2.30;;
53961;SDS011;39868;53.398;6.564;2022-12-07T06:27:06;3.30;;;2.20;;
53961;SDS011;39868;53.398;6.564;2022-12-07T06:29:34;5.50;;;2.50;;
53961;SDS011;39868;53.398;6.564;2022-12-07T06:32:01;2.97;;;2.67;;
53961;SDS011;39868;53.398;6.564;2022-12-07T06:34:29;3.83;;;2.60;;
53961;SDS011;39868;53.398;6.564;2022-12-07T06:36:57;4.00;;;2.60;;
53961;SDS011;39868;53.398;6.564;2022-12-07T06:39:25;2.77;;;1.93;;
53961;SDS011;39868;53.398;6.564;2022-12-07T06:41:54;5.93;;;2.80;;
53961;SDS011;39868;53.398;6.564;2022-12-07T06:44:22;6.17;;;2.13;;
53961;SDS011;39868;53.398;6.564;2022-12-07T06:46:50;4.23;;;2.40;;
53961;SDS011;39868;53.398;6.564;2022-12-07T06:49:38;5.60;;;2.20;;
53961;SDS011;39868;53.398;6.564;2022-12-07T06:52:05;5.47;;;2.70;;
53961;SDS011;39868;53.398;6.564;2022-12-07T06:54:32;4.13;;;2.20;;
53961;SDS011;39868;53.398;6.564;2022-12-07T06:57:00;11.17;;;3.30;;
53961;SDS011;39868;53.398;6.564;2022-12-07T06:59:27;8.03;;;2.90;;
53961;SDS011;39868;53.398;6.564;2022-12-07T07:01:55;4.63;;;2.60;;
53961;SDS011;39868;53.398;6.564;2022-12-07T07:04:22;5.77;;;3.00;;
53961;SDS011;39868;53.398;6.564;2022-12-07T07:06:51;5.10;;;2.20;;
53961;SDS011;39868;53.398;6.564;2022-12-07T07:09:25;5.83;;;2.87;;
53961;SDS011;39868;53.398;6.564;2022-12-07T07:11:53;3.10;;;2.30;;
53961;SDS011;39868;53.398;6.564;2022-12-07T07:14:20;4.30;;;2.20;;
53961;SDS011;39868;53.398;6.564;2022-12-07T07:16:48;2.00;;;1.80;;
53961;SDS011;39868;53.398;6.564;2022-12-07T07:19:16;3.27;;;2.10;;
53961;SDS011;39868;53.398;6.564;2022-12-07T07:21:43;2.77;;;2.27;;
53961;SDS011;39868;53.398;6.564;2022-12-07T07:24:10;3.77;;;2.00;;
53961;SDS011;39868;53.398;6.564;2022-12-07T07:26:38;6.23;;;2.30;;
53961;SDS011;39868;53.398;6.564;2022-12-07T07:29:05;3.10;;;2.13;;
53961;SDS011;39868;53.398;6.564;2022-12-07T07:31:33;4.80;;;1.90;;
53961;SDS011;39868;53.398;6.564;2022-12-07T07:34:02;2.47;;;2.27;;
53961;SDS011;39868;53.398;6.564;2022-12-07T07:36:29;2.90;;;2.13;;
53961;SDS011;39868;53.398;6.564;2022-12-07T07:38:57;2.50;;;1.97;;
53961;SDS011;39868;53.398;6.564;2022-12-07T07:41:24;2.20;;;1.73;;
53961;SDS011;39868;53.398;6.564;2022-12-07T07:43:52;3.47;;;2.17;;
53961;SDS011;39868;53.398;6.564;2022-12-07T07:46:19;2.43;;;1.80;;
53961;SDS011;39868;53.398;6.564;2022-12-07T07:48:47;4.70;;;2.17;;
53961;SDS011;39868;53.398;6.564;2022-12-07T07:51:14;5.87;;;2.33;;
53961;SDS011;39868;53.398;6.564;2022-12-07T07:53:41;3.77;;;2.13;;
53961;SDS011;39868;53.398;6.564;2022-12-07T07:56:09;5.50;;;2.10;;
53961;SDS011;39868;53.398;6.564;2022-12-07T07:58:38;6.30;;;2.47;;
53961;SDS011;39868;53.398;6.564;2022-12-07T08:01:06;4.07;;;1.90;;
53961;SDS011;39868;53.398;6.564;2022-12-07T08:03:34;5.40;;;1.93;;
53961;SDS011;39868;53.398;6.564;2022-12-07T08:06:02;3.67;;;1.90;;
53961;SDS011;39868;53.398;6.564;2022-12-07T08:08:30;5.13;;;1.90;;
53961;SDS011;39868;53.398;6.564;2022-12-07T08:10:58;4.20;;;1.70;;
53961;SDS011;39868;53.398;6.564;2022-12-07T08:13:28;3.63;;;1.73;;
53961;SDS011;39868;53.398;6.564;2022-12-07T08:15:57;3.67;;;1.97;;
53961;SDS011;39868;53.398;6.564;2022-12-07T08:18:25;10.47;;;2.17;;
53961;SDS011;39868;53.398;6.564;2022-12-07T08:20:52;7.67;;;2.47;;
53961;SDS011;39868;53.398;6.564;2022-12-07T08:23:27;4.13;;;2.27;;
53961;SDS011;39868;53.398;6.564;2022-12-07T08:26:06;5.03;;;2.03;;
53961;SDS011;39868;53.398;6.564;2022-12-07T08:28:39;6.57;;;2.00;;
53961;SDS011;39868;53.398;6.564;2022-12-07T08:31:11;4.63;;;1.70;;
53961;SDS011;39868;53.398;6.564;2022-12-07T08:33:41;3.93;;;1.67;;
53961;SDS011;39868;53.398;6.564;2022-12-07T08:36:09;4.70;;;1.60;;
53961;SDS011;39868;53.398;6.564;2022-12-07T08:38:38;3.17;;;1.40;;
53961;SDS011;39868;53.398;6.564;2022-12-07T08:41:17;2.73;;;1.70;;
53961;SDS011;39868;53.398;6.564;2022-12-07T08:43:44;2.87;;;1.50;;
53961;SDS011;39868;53.398;6.564;2022-12-07T08:46:31;2.03;;;1.60;;
53961;SDS011;39868;53.398;6.564;2022-12-07T08:51:36;2.70;;;1.60;;
53961;SDS011;39868;53.398;6.564;2022-12-07T08:54:04;3.90;;;1.73;;
53961;SDS011;39868;53.398;6.564;2022-12-07T08:56:34;2.40;;;1.50;;
53961;SDS011;39868;53.398;6.564;2022-12-07T08:59:02;3.20;;;2.00;;
53961;SDS011;39868;53.398;6.564;2022-12-07T09:01:31;3.33;;;1.70;;
53961;SDS011;39868;53.398;6.564;2022-12-07T09:03:59;1.67;;;1.60;;
53961;SDS011;39868;53.398;6.564;2022-12-07T09:06:27;2.47;;;1.80;;
53961;SDS011;39868;53.398;6.564;2022-12-07T09:08:56;2.23;;;2.00;;
53961;SDS011;39868;53.398;6.564;2022-12-07T09:11:25;2.37;;;1.90;;
53961;SDS011;39868;53.398;6.564;2022-12-07T09:13:54;3.40;;;1.93;;
53961;SDS011;39868;53.398;6.564;2022-12-07T09:16:22;3.23;;;2.00;;
53961;SDS011;39868;53.398;6.564;2022-12-07T09:18:50;6.07;;;2.10;;
53961;SDS011;39868;53.398;6.564;2022-12-07T09:21:17;4.73;;;2.30;;
53961;SDS011;39868;53.398;6.564;2022-12-07T09:23:45;3.00;;;1.93;;
53961;SDS011;39868;53.398;6.564;2022-12-07T09:26:12;6.47;;;2.13;;
53961;SDS011;39868;53.398;6.564;2022-12-07T09:28:49;5.93;;;2.00;;
53961;SDS011;39868;53.398;6.564;2022-12-07T09:31:16;9.73;;;2.63;;
53961;SDS011;39868;53.398;6.564;2022-12-07T09:33:56;8.03;;;1.80;;
53961;SDS011;39868;53.398;6.564;2022-12-07T09:36:26;5.53;;;1.83;;
53961;SDS011;39868;53.398;6.564;2022-12-07T09:38:53;2.90;;;1.70;;
53961;SDS011;39868;53.398;6.564;2022-12-07T09:41:22;2.83;;;2.10;;
53961;SDS011;39868;53.398;6.564;2022-12-07T09:43:51;2.10;;;1.90;;
53961;SDS011;39868;53.398;6.564;2022-12-07T09:46:21;3.30;;;1.80;;
53961;SDS011;39868;53.398;6.564;2022-12-07T09:48:49;2.30;;;2.00;;
53961;SDS011;39868;53.398;6.564;2022-12-07T09:51:19;2.97;;;1.90;;
53961;SDS011;39868;53.398;6.564;2022-12-07T09:53:52;4.33;;;1.80;;
53961;SDS011;39868;53.398;6.564;2022-12-07T09:56:21;4.73;;;1.73;;
53961;SDS011;39868;53.398;6.564;2022-12-07T09:58:50;4.13;;;1.70;;
53961;SDS011;39868;53.398;6.564;2022-12-07T10:01:22;4.43;;;1.80;;
53961;SDS011;39868;53.398;6.564;2022-12-07T10:03:54;4.73;;;1.83;;
53961;SDS011;39868;53.398;6.564;2022-12-07T10:06:27;4.70;;;1.73;;
53961;SDS011;39868;53.398;6.564;2022-12-07T10:08:55;5.70;;;1.70;;
53961;SDS011;39868;53.398;6.564;2022-12-07T10:11:22;2.37;;;1.40;;
53961;SDS011;39868;53.398;6.564;2022-12-07T10:13:51;2.03;;;1.60;;
53961;SDS011;39868;53.398;6.564;2022-12-07T10:16:27;6.53;;;1.60;;
53961;SDS011;39868;53.398;6.564;2022-12-07T10:19:19;5.13;;;1.53;;
53961;SDS011;39868;53.398;6.564;2022-12-07T10:22:01;3.90;;;1.77;;
53961;SDS011;39868;53.398;6.564;2022-12-07T10:24:43;4.27;;;1.60;;
53961;SDS011;39868;53.398;6.564;2022-12-07T10:27:17;3.17;;;1.40;;
53961;SDS011;39868;53.398;6.564;2022-12-07T10:30:07;2.70;;;1.70;;
53961;SDS011;39868;53.398;6.564;2022-12-07T10:32:42;4.10;;;1.87;;
53961;SDS011;39868;53.398;6.564;2022-12-07T10:35:29;2.90;;;1.60;;
53961;SDS011;39868;53.398;6.564;2022-12-07T10:37:58;6.20;;;1.40;;
53961;SDS011;39868;53.398;6.564;2022-12-07T10:40:34;3.37;;;1.37;;
53961;SDS011;39868;53.398;6.564;2022-12-07T10:46:04;4.40;;;1.13;;
53961;SDS011;39868;53.398;6.564;2022-12-07T10:54:14;4.27;;;1.20;;
53961;SDS011;39868;53.398;6.564;2022-12-07T10:57:00;3.20;;;0.90;;
53961;SDS011;39868;53.398;6.564;2022-12-07T10:59:55;1.50;;;0.80;;
53961;SDS011;39868;53.398;6.564;2022-12-07T11:21:30;1.80;;;1.00;;
53961;SDS011;39868;53.398;6.564;2022-12-07T11:24:19;1.70;;;1.15;;
53961;SDS011;39868;53.398;6.564;2022-12-07T11:38:15;3.80;;;0.93;;
53961;SDS011;39868;53.398;6.564;2022-12-07T11:40:53;1.48;;;0.70;;
53961;SDS011;39868;53.398;6.564;2022-12-07T11:43:50;2.42;;;0.60;;
53961;SDS011;39868;53.398;6.564;2022-12-07T11:46:44;3.67;;;0.57;;
53961;SDS011;39868;53.398;6.564;2022-12-07T11:51:49;0.47;;;0.40;;
53961;SDS011;39868;53.398;6.564;2022-12-07T11:54:25;0.60;;;0.40;;
53961;SDS011;39868;53.398;6.564;2022-12-07T11:56:56;2.95;;;0.43;;
53961;SDS011;39868;53.398;6.564;2022-12-07T12:02:11;1.98;;;0.70;;
53961;SDS011;39868;53.398;6.564;2022-12-07T12:07:30;0.40;;;0.33;;
53961;SDS011;39868;53.398;6.564;2022-12-07T12:10:21;2.95;;;0.73;;
53961;SDS011;39868;53.398;6.564;2022-12-07T12:21:48;1.40;;;0.77;;
53961;SDS011;39868;53.398;6.564;2022-12-07T12:24:25;0.98;;;0.70;;
53961;SDS011;39868;53.398;6.564;2022-12-07T12:26:59;5.63;;;1.00;;
53961;SDS011;39868;53.398;6.564;2022-12-07T12:29:38;4.95;;;1.00;;
53961;SDS011;39868;53.398;6.564;2022-12-07T12:32:14;4.63;;;0.80;;
53961;SDS011;39868;53.398;6.564;2022-12-07T12:42:48;0.90;;;0.68;;
53961;SDS011;39868;53.398;6.564;2022-12-07T12:45:21;4.10;;;0.77;;
53961;SDS011;39868;53.398;6.564;2022-12-07T12:47:55;3.15;;;0.60;;
53961;SDS011;39868;53.398;6.564;2022-12-07T12:50:27;0.50;;;0.43;;
53961;SDS011;39868;53.398;6.564;2022-12-07T12:52:55;1.42;;;0.55;;
53961;SDS011;39868;53.398;6.564;2022-12-07T13:00:45;0.52;;;0.50;;
53961;SDS011;39868;53.398;6.564;2022-12-07T13:03:21;0.75;;;0.50;;
53961;SDS011;39868;53.398;6.564;2022-12-07T13:08:54;4.32;;;0.45;;
53961;SDS011;39868;53.398;6.564;2022-12-07T13:11:27;1.88;;;0.85;;
53961;SDS011;39868;53.398;6.564;2022-12-07T13:17:10;2.67;;;1.00;;
53961;SDS011;39868;53.398;6.564;2022-12-07T13:25:18;3.17;;;1.60;;
53961;SDS011;39868;53.398;6.564;2022-12-07T13:27:51;2.30;;;1.03;;
53961;SDS011;39868;53.398;6.564;2022-12-07T13:30:27;2.47;;;0.80;;
53961;SDS011;39868;53.398;6.564;2022-12-07T13:32:57;1.50;;;0.90;;
53961;SDS011;39868;53.398;6.564;2022-12-07T13:35:32;3.23;;;1.10;;
53961;SDS011;39868;53.398;6.564;2022-12-07T13:38:05;0.80;;;0.80;;
53961;SDS011;39868;53.398;6.564;2022-12-07T13:40:43;0.60;;;0.60;;
53961;SDS011;39868;53.398;6.564;2022-12-07T13:43:27;1.97;;;0.97;;
53961;SDS011;39868;53.398;6.564;2022-12-07T13:45:57;1.43;;;0.90;;
53961;SDS011;39868;53.398;6.564;2022-12-07T13:48:31;3.37;;;0.90;;
53961;SDS011;39868;53.398;6.564;2022-12-07T13:50:59;3.30;;;1.10;;
53961;SDS011;39868;53.398;6.564;2022-12-07T13:53:28;2.30;;;1.10;;
53961;SDS011;39868;53.398;6.564;2022-12-07T13:55:59;4.60;;;1.00;;
53961;SDS011;39868;53.398;6.564;2022-12-07T13:58:30;3.97;;;1.00;;
53961;SDS011;39868;53.398;6.564;2022-12-07T14:00:58;3.70;;;1.00;;
53961;SDS011;39868;53.398;6.564;2022-12-07T14:03:28;1.17;;;0.93;;
53961;SDS011;39868;53.398;6.564;2022-12-07T14:08:37;3.70;;;1.57;;
53961;SDS011;39868;53.398;6.564;2022-12-07T14:11:05;3.77;;;1.03;;
53961;SDS011;39868;53.398;6.564;2022-12-07T14:13:35;3.80;;;0.90;;
53961;SDS011;39868;53.398;6.564;2022-12-07T14:18:56;2.80;;;0.90;;
53961;SDS011;39868;53.398;6.564;2022-12-07T14:21:26;2.63;;;1.00;;
53961;SDS011;39868;53.398;6.564;2022-12-07T14:24:12;0.93;;;0.70;;
53961;SDS011;39868;53.398;6.564;2022-12-07T14:26:46;1.13;;;0.90;;
53961;SDS011;39868;53.398;6.564;2022-12-07T14:29:19;1.83;;;0.97;;
53961;SDS011;39868;53.398;6.564;2022-12-07T14:31:48;2.50;;;1.00;;
53961;SDS011;39868;53.398;6.564;2022-12-07T14:34:15;1.30;;;0.97;;
53961;SDS011;39868;53.398;6.564;2022-12-07T14:36:43;2.83;;;1.00;;
53961;SDS011;39868;53.398;6.564;2022-12-07T14:39:11;2.50;;;1.07;;
53961;SDS011;39868;53.398;6.564;2022-12-07T14:41:39;6.07;;;1.20;;
53961;SDS011;39868;53.398;6.564;2022-12-07T14:44:19;5.90;;;0.80;;
53961;SDS011;39868;53.398;6.564;2022-12-07T14:46:53;1.83;;;0.83;;
53961;SDS011;39868;53.398;6.564;2022-12-07T14:49:41;2.43;;;1.27;;
53961;SDS011;39868;53.398;6.564;2022-12-07T14:52:18;2.50;;;1.10;;
53961;SDS011;39868;53.398;6.564;2022-12-07T14:55:14;1.37;;;1.27;;
53961;SDS011;39868;53.398;6.564;2022-12-07T14:57:51;1.00;;;1.00;;
53961;SDS011;39868;53.398;6.564;2022-12-07T15:00:20;1.83;;;1.20;;
53961;SDS011;39868;53.398;6.564;2022-12-07T15:02:49;1.83;;;1.30;;
53961;SDS011;39868;53.398;6.564;2022-12-07T15:05:17;1.93;;;1.40;;
53961;SDS011;39868;53.398;6.564;2022-12-07T15:07:46;3.53;;;1.57;;
53961;SDS011;39868;53.398;6.564;2022-12-07T15:12:59;1.10;;;1.10;;
53961;SDS011;39868;53.398;6.564;2022-12-07T15:15:47;1.17;;;0.90;;
53961;SDS011;39868;53.398;6.564;2022-12-07T15:18:15;1.30;;;1.20;;
53961;SDS011;39868;53.398;6.564;2022-12-07T15:20:44;1.43;;;1.03;;
53961;SDS011;39868;53.398;6.564;2022-12-07T15:23:13;1.30;;;1.13;;
53961;SDS011;39868;53.398;6.564;2022-12-07T15:25:42;1.43;;;1.40;;
53961;SDS011;39868;53.398;6.564;2022-12-07T15:28:10;1.27;;;1.20;;
53961;SDS011;39868;53.398;6.564;2022-12-07T15:30:38;1.90;;;1.30;;
53961;SDS011;39868;53.398;6.564;2022-12-07T15:33:06;3.43;;;1.37;;
53961;SDS011;39868;53.398;6.564;2022-12-07T15:35:38;1.50;;;1.17;;
53961;SDS011;39868;53.398;6.564;2022-12-07T15:38:12;3.67;;;1.13;;
53961;SDS011;39868;53.398;6.564;2022-12-07T15:40:39;1.73;;;1.20;;
53961;SDS011;39868;53.398;6.564;2022-12-07T15:43:10;1.30;;;1.30;;
53961;SDS011;39868;53.398;6.564;2022-12-07T15:45:57;1.80;;;1.43;;
53961;SDS011;39868;53.398;6.564;2022-12-07T15:48:26;1.50;;;1.40;;
53961;SDS011;39868;53.398;6.564;2022-12-07T15:51:04;1.80;;;1.33;;
53961;SDS011;39868;53.398;6.564;2022-12-07T15:53:33;4.50;;;1.40;;
53961;SDS011;39868;53.398;6.564;2022-12-07T15:56:01;2.07;;;1.20;;
53961;SDS011;39868;53.398;6.564;2022-12-07T15:58:32;1.50;;;1.30;;
53961;SDS011;39868;53.398;6.564;2022-12-07T16:01:00;1.33;;;1.23;;
53961;SDS011;39868;53.398;6.564;2022-12-07T16:03:27;2.13;;;1.77;;
53961;SDS011;39868;53.398;6.564;2022-12-07T16:05:55;1.10;;;1.10;;
53961;SDS011;39868;53.398;6.564;2022-12-07T16:08:22;2.80;;;1.33;;
53961;SDS011;39868;53.398;6.564;2022-12-07T16:10:50;1.67;;;1.30;;
53961;SDS011;39868;53.398;6.564;2022-12-07T16:13:17;1.83;;;1.20;;
53961;SDS011;39868;53.398;6.564;2022-12-07T16:15:46;1.67;;;1.30;;
53961;SDS011;39868;53.398;6.564;2022-12-07T16:18:13;1.33;;;1.23;;
53961;SDS011;39868;53.398;6.564;2022-12-07T16:20:41;1.00;;;1.00;;
53961;SDS011;39868;53.398;6.564;2022-12-07T16:23:08;1.63;;;1.10;;
53961;SDS011;39868;53.398;6.564;2022-12-07T16:25:36;3.50;;;1.00;;
53961;SDS011;39868;53.398;6.564;2022-12-07T16:28:03;2.00;;;0.97;;
53961;SDS011;39868;53.398;6.564;2022-12-07T16:30:31;3.43;;;1.23;;
53961;SDS011;39868;53.398;6.564;2022-12-07T16:32:59;0.90;;;0.90;;
53961;SDS011;39868;53.398;6.564;2022-12-07T16:35:28;1.43;;;1.00;;
53961;SDS011;39868;53.398;6.564;2022-12-07T16:37:55;1.27;;;0.80;;
53961;SDS011;39868;53.398;6.564;2022-12-07T16:40:23;1.30;;;1.13;;
53961;SDS011;39868;53.398;6.564;2022-12-07T16:42:50;4.03;;;2.00;;
53961;SDS011;39868;53.398;6.564;2022-12-07T16:45:18;4.33;;;2.27;;
53961;SDS011;39868;53.398;6.564;2022-12-07T16:47:46;5.53;;;2.07;;
53961;SDS011;39868;53.398;6.564;2022-12-07T16:50:14;4.63;;;1.67;;
53961;SDS011;39868;53.398;6.564;2022-12-07T16:52:41;8.47;;;2.30;;
53961;SDS011;39868;53.398;6.564;2022-12-07T16:55:09;4.47;;;1.73;;
53961;SDS011;39868;53.398;6.564;2022-12-07T16:57:36;3.40;;;0.90;;
53961;SDS011;39868;53.398;6.564;2022-12-07T17:00:04;3.97;;;1.20;;
53961;SDS011;39868;53.398;6.564;2022-12-07T17:02:33;1.43;;;0.80;;
53961;SDS011;39868;53.398;6.564;2022-12-07T17:05:00;0.73;;;0.70;;
53961;SDS011;39868;53.398;6.564;2022-12-07T17:07:28;1.93;;;0.80;;
53961;SDS011;39868;53.398;6.564;2022-12-07T17:09:55;1.80;;;0.80;;
53961;SDS011;39868;53.398;6.564;2022-12-07T17:12:23;2.97;;;1.10;;
53961;SDS011;39868;53.398;6.564;2022-12-07T17:14:50;1.17;;;1.00;;
53961;SDS011;39868;53.398;6.564;2022-12-07T17:17:37;1.50;;;1.20;;
53961;SDS011;39868;53.398;6.564;2022-12-07T17:20:04;1.30;;;1.10;;
53961;SDS011;39868;53.398;6.564;2022-12-07T17:22:32;1.97;;;1.23;;
53961;SDS011;39868;53.398;6.564;2022-12-07T17:24:59;1.70;;;1.00;;
53961;SDS011;39868;53.398;6.564;2022-12-07T17:27:27;1.83;;;1.10;;
53961;SDS011;39868;53.398;6.564;2022-12-07T17:29:55;1.10;;;1.00;;